Time;durP1;ratioP1;P1;durP2;ratioP2;P2;SDS_P1;SDS_P2;PMS_P1;PMS_P2;Temp;Humidity;BMP_temperature;BMP_pressure;BME280_temperature;BME280_humidity;BME280_pressure;Samples;Min_cycle;Max_cycle;Signal;HPM_P1;HPM_P2
2022/05/25 00:00:09;;;;;;;;;0.00;0.00;;;;;16.32;53.47;100700.19;5055291;28;45533;-84
2022/05/25 00:02:35;;;;;;;;;0.25;0.00;;;;;16.41;53.46;100712.53;5055288;28;45634;-85
2022/05/25 00:05:01;;;;;;;;;0.00;0.00;;;;;16.40;53.39;100704.78;5055513;28;45692;-86
2022/05/25 00:07:27;;;;;;;;;0.00;0.00;;;;;16.39;53.31;100703.94;5055382;28;46384;-80
2022/05/25 00:09:53;;;;;;;;;0.00;0.00;;;;;16.27;53.49;100691.84;5055279;28;46076;-85
2022/05/25 00:12:20;;;;;;;;;0.00;0.00;;;;;16.21;53.80;100684.50;5055283;28;45601;-84
2022/05/25 00:14:45;;;;;;;;;0.00;0.00;;;;;16.27;53.67;100700.63;5055455;28;45674;-81
2022/05/25 00:17:11;;;;;;;;;0.50;0.00;;;;;16.23;53.61;100685.19;5054595;28;47522;-81
2022/05/25 00:22:20;;;;;;;;;1.00;0.25;;;;;16.19;53.97;100686.47;5054892;28;45845;-84
2022/05/25 00:24:47;;;;;;;;;0.00;0.00;;;;;16.24;53.91;100700.94;5055268;28;45704;-83
2022/05/25 00:30:35;;;;;;;;;0.00;0.00;;;;;16.21;53.85;100697.72;5071068;28;45235;-79
2022/05/25 00:33:02;;;;;;;;;0.50;0.50;;;;;16.23;54.03;100707.19;5074209;28;45440;-75
2022/05/25 00:35:30;;;;;;;;;0.00;0.00;;;;;16.21;54.02;100703.84;5053985;28;45329;-79
2022/05/25 00:37:57;;;;;;;;;0.50;0.00;;;;;16.18;53.99;100703.31;5060627;28;45684;-81
2022/05/25 00:40:27;;;;;;;;;0.00;0.00;;;;;16.18;53.91;100711.22;5056107;28;46665;-81
2022/05/25 00:42:53;;;;;;;;;0.00;0.00;;;;;16.08;53.88;100694.56;5054606;28;45685;-81
2022/05/25 00:45:18;;;;;;;;;2.00;0.00;;;;;16.17;53.91;100720.97;5054379;28;45518;-83
2022/05/25 00:47:47;;;;;;;;;0.75;0.75;;;;;16.16;54.40;100713.19;5054216;28;45878;-83
2022/05/25 00:50:16;;;;;;;;;1.00;0.00;;;;;16.05;54.53;100713.34;5054473;28;46414;-82
2022/05/25 00:52:43;;;;;;;;;0.25;0.00;;;;;16.04;54.67;100722.22;5054441;28;45655;-82
2022/05/25 01:01:17;;;;;;;;;1.75;1.00;;;;;15.88;55.13;100726.28;5054119;28;45535;-79
2022/05/25 01:03:42;;;;;;;;;0.00;0.00;;;;;15.82;54.79;100720.72;5054528;28;45580;-81
2022/05/25 01:06:20;;;;;;;;;0.00;0.00;;;;;15.81;55.16;100730.47;5054592;28;45839;-84
2022/05/25 01:08:56;;;;;;;;;0.50;0.50;;;;;15.78;55.25;100729.91;5035877;28;47605;-83
2022/05/25 01:11:27;;;;;;;;;2.00;0.00;;;;;15.74;55.28;100736.44;5054252;28;46370;-80
2022/05/25 01:14:09;;;;;;;;;1.00;0.00;;;;;15.71;55.72;100739.38;5054383;28;45450;-83
2022/05/25 01:16:50;;;;;;;;;0.00;0.00;;;;;15.63;55.69;100734.78;5054022;28;45623;-85
2022/05/25 01:19:37;;;;;;;;;1.00;1.00;;;;;15.63;55.49;100740.06;5053789;28;46757;-82
2022/05/25 01:22:17;;;;;;;;;0.00;0.00;;;;;15.52;56.39;100733.09;5054052;28;46014;-83
2022/05/25 01:24:48;;;;;;;;;2.00;1.00;;;;;15.54;56.51;100746.19;5054241;28;45657;-83
2022/05/25 01:27:25;;;;;;;;;0.00;0.00;;;;;15.50;56.70;100744.72;5053980;28;45784;-81
2022/05/25 01:29:53;;;;;;;;;0.00;0.00;;;;;15.45;56.91;100746.94;5053845;28;45639;-83
2022/05/25 01:32:38;;;;;;;;;0.75;0.75;;;;;15.39;56.87;100744.84;5054128;28;46386;-85
2022/05/25 01:35:17;;;;;;;;;0.25;0.00;;;;;15.32;57.49;100741.94;5054237;28;45674;-83
2022/05/25 01:37:53;;;;;;;;;0.00;0.00;;;;;15.20;57.49;100739.53;5036175;28;45620;-84
2022/05/25 01:43:57;;;;;;;;;0.50;0.50;;;;;15.12;58.21;100761.31;5053520;28;46185;-81
2022/05/25 01:46:36;;;;;;;;;1.00;1.00;;;;;15.05;58.16;100763.69;5053569;28;45624;-83
2022/05/25 01:49:06;;;;;;;;;0.00;0.00;;;;;14.96;58.46;100768.91;5053976;28;45605;-82
2022/05/25 01:51:39;;;;;;;;;0.25;0.25;;;;;14.88;58.77;100763.47;5053751;28;46738;-83
2022/05/25 01:54:08;;;;;;;;;1.00;1.00;;;;;14.83;58.96;100763.88;5053595;28;46269;-81
2022/05/25 01:59:55;;;;;;;;;2.00;2.00;;;;;14.62;59.39;100752.53;5057282;28;45690;-85
2022/05/25 02:05:09;;;;;;;;;2.75;1.25;;;;;14.59;59.66;100771.22;5056723;28;45827;-85
2022/05/25 02:07:53;;;;;;;;;1.25;1.25;;;;;14.59;59.95;100772.06;5057114;28;45527;-83
2022/05/25 02:10:31;;;;;;;;;1.00;1.00;;;;;14.54;60.11;100762.88;5057022;28;45605;-82
2022/05/25 02:16:52;;;;;;;;;1.50;1.50;;;;;14.52;60.26;100775.38;5056414;28;45667;-79
2022/05/25 02:19:23;;;;;;;;;1.00;1.00;;;;;14.51;60.13;100782.44;5056847;28;45630;-83
2022/05/25 02:21:51;;;;;;;;;2.00;1.00;;;;;14.51;60.26;100781.59;5039035;28;45793;-84
2022/05/25 02:24:43;;;;;;;;;1.00;1.00;;;;;14.47;60.13;100775.75;5057119;28;45936;-83
2022/05/25 02:27:28;;;;;;;;;3.00;1.00;;;;;14.48;59.99;100772.16;5038165;28;46083;-85
2022/05/25 02:30:08;;;;;;;;;1.00;1.00;;;;;14.52;59.71;100778.00;5056564;28;45546;-84
2022/05/25 02:32:55;;;;;;;;;1.00;1.00;;;;;14.53;60.22;100783.13;5057153;28;45580;-82
2022/05/25 02:35:23;;;;;;;;;1.50;1.50;;;;;14.55;60.76;100775.09;5056844;28;45741;-81
2022/05/25 02:37:51;;;;;;;;;0.25;0.25;;;;;14.54;60.55;100783.97;5056506;28;45946;-83
2022/05/25 02:40:17;;;;;;;;;1.00;1.00;;;;;14.53;60.29;100784.94;5056416;28;45768;-84
2022/05/25 02:42:43;;;;;;;;;1.00;1.00;;;;;14.47;60.33;100782.81;5056497;28;45817;-80
2022/05/25 02:45:10;;;;;;;;;2.00;2.00;;;;;14.50;60.60;100799.22;5056276;28;45617;-84
2022/05/25 02:47:36;;;;;;;;;1.00;1.00;;;;;14.42;60.98;100788.47;5056195;28;45784;-83
2022/05/25 02:50:02;;;;;;;;;1.00;1.00;;;;;14.37;60.71;100787.19;5056278;28;45601;-83
2022/05/25 02:52:27;;;;;;;;;1.00;1.00;;;;;14.32;60.76;100771.75;5056319;28;45532;-84
2022/05/25 02:54:53;;;;;;;;;1.25;1.00;;;;;14.36;60.88;100780.25;5056064;28;46533;-84
2022/05/25 02:57:18;;;;;;;;;0.75;0.75;;;;;14.28;60.87;100781.72;5037578;28;48300;-85
2022/05/25 02:59:44;;;;;;;;;1.25;0.50;;;;;14.29;61.21;100793.09;5056251;28;45552;-84
2022/05/25 03:02:10;;;;;;;;;1.00;1.00;;;;;14.30;60.87;100794.78;5054531;28;45998;-83
2022/05/25 03:04:42;;;;;;;;;0.75;0.75;;;;;14.21;61.37;100798.16;5055853;28;45551;-84
2022/05/25 03:07:08;;;;;;;;;1.00;1.00;;;;;14.24;60.94;100806.66;5037304;28;48261;-85
2022/05/25 03:09:36;;;;;;;;;0.75;0.50;;;;;14.22;61.48;100808.56;5055775;28;45524;-81
2022/05/25 03:12:03;;;;;;;;;1.00;1.00;;;;;14.21;61.33;100814.81;5055932;28;45602;-84
2022/05/25 03:14:30;;;;;;;;;0.00;0.00;;;;;14.25;61.82;100820.66;5055609;28;45565;-84
2022/05/25 03:16:55;;;;;;;;;1.00;1.00;;;;;14.24;61.79;100824.25;5055478;28;45966;-84
2022/05/25 03:19:21;;;;;;;;;2.00;1.00;;;;;14.22;61.58;100826.19;5055549;28;45448;-81
2022/05/25 03:21:46;;;;;;;;;1.00;1.00;;;;;14.18;61.99;100825.59;5055187;28;45835;-79
2022/05/25 03:24:12;;;;;;;;;1.00;1.00;;;;;14.15;61.83;100832.91;5055476;28;45527;-83
2022/05/25 03:26:38;;;;;;;;;0.25;0.25;;;;;14.13;61.88;100829.59;5055331;28;46424;-84
2022/05/25 03:29:04;;;;;;;;;1.00;1.00;;;;;14.01;61.76;100827.94;5037127;28;45614;-82
2022/05/25 03:31:29;;;;;;;;;1.00;1.00;;;;;14.03;62.40;100833.94;5055249;28;45788;-84
2022/05/25 03:33:54;;;;;;;;;0.00;0.00;;;;;14.06;62.09;100841.56;5055389;28;45610;-83
2022/05/25 03:36:20;;;;;;;;;1.00;1.00;;;;;14.06;62.58;100850.31;5055504;28;45834;-81
2022/05/25 03:38:45;;;;;;;;;0.75;0.75;;;;;14.05;62.42;100853.06;5055756;28;45452;-84
2022/05/25 03:41:10;;;;;;;;;1.00;0.00;;;;;14.00;62.48;100850.81;5055600;28;45836;-84
2022/05/25 03:46:58;;;;;;;;;2.00;1.00;;;;;13.91;62.42;100861.28;5054718;28;45915;-82
2022/05/25 03:49:23;;;;;;;;;1.00;1.00;;;;;13.90;62.42;100859.59;5055497;28;45527;-83
2022/05/25 03:51:48;;;;;;;;;1.00;1.00;;;;;13.83;63.12;100865.34;5055499;28;45681;-84
2022/05/25 03:54:14;;;;;;;;;1.00;1.00;;;;;13.87;62.85;100873.88;5055256;28;46600;-83
2022/05/25 03:56:39;;;;;;;;;2.00;2.00;;;;;13.85;62.80;100870.50;5036739;28;47604;-84
2022/05/25 04:02:27;;;;;;;;;1.00;1.00;;;;;13.93;62.78;100885.69;5054855;28;45557;-83
2022/05/25 04:05:07;;;;;;;;;2.00;2.00;;;;;13.88;63.06;100876.34;5054827;28;46690;-79
2022/05/25 04:07:44;;;;;;;;;1.00;1.00;;;;;13.90;63.08;100880.66;5054696;28;46078;-84
2022/05/25 04:10:13;;;;;;;;;2.00;1.75;;;;;13.95;62.99;100884.59;5037360;28;45590;-83
2022/05/25 04:12:40;;;;;;;;;2.00;1.25;;;;;13.93;63.13;100885.69;5055080;28;45531;-80
2022/05/25 04:15:07;;;;;;;;;1.75;1.00;;;;;13.87;63.08;100871.22;5054712;28;46374;-84
2022/05/25 04:17:33;;;;;;;;;2.00;1.25;;;;;13.97;62.91;100887.97;5054555;28;46186;-84
2022/05/25 04:19:58;;;;;;;;;2.00;1.00;;;;;13.93;63.49;100872.53;5053815;28;45673;-82
2022/05/25 04:22:24;;;;;;;;;2.00;2.00;;;;;13.92;62.74;100873.50;5054719;28;45677;-84
2022/05/25 04:24:50;;;;;;;;;1.50;1.50;;;;;13.92;63.30;100868.22;5054619;28;45723;-84
2022/05/25 04:27:15;;;;;;;;;1.25;1.25;;;;;13.95;62.84;100865.31;5035954;28;47844;-84
2022/05/25 04:29:40;;;;;;;;;1.00;1.00;;;;;13.91;62.90;100866.53;5054639;28;45647;-81
2022/05/25 04:32:06;;;;;;;;;2.00;2.00;;;;;13.98;63.23;100884.34;5054761;28;45629;-82
2022/05/25 04:34:32;;;;;;;;;1.00;1.00;;;;;14.03;63.01;100895.38;5036324;28;48453;-81
2022/05/25 04:37:48;;;;;;;;;2.00;2.00;;;;;14.02;62.80;100901.59;5055202;28;46007;-82
2022/05/25 04:39:44;;;;;;;;;2.50;2.00;;;;;13.99;62.88;100893.09;5055270;28;45518;-81
2022/05/25 04:42:10;;;;;;;;;2.75;2.25;;;;;14.01;62.99;100893.81;5054935;28;45510;-85
2022/05/25 04:47:58;;;;;;;;;4.00;3.00;;;;;14.04;63.18;100906.72;5054365;28;45977;-83
2022/05/25 04:50:27;;;;;;;;;2.25;2.00;;;;;14.01;63.31;100915.72;5054661;28;45642;-84
2022/05/25 04:52:56;;;;;;;;;3.50;2.00;;;;;14.04;62.89;100925.16;5067634;28;45578;-80
2022/05/25 04:58:26;;;;;;;;;1.00;1.00;;;;;14.05;63.08;100932.94;5058449;28;45968;-85
2022/05/25 05:00:52;;;;;;;;;2.75;2.25;;;;;14.02;63.40;100917.41;5055692;28;46034;-83
2022/05/25 05:03:20;;;;;;;;;3.25;2.25;;;;;14.10;63.39;100933.41;5056300;28;45428;-84
2022/05/25 05:05:46;;;;;;;;;3.00;3.00;;;;;14.08;63.25;100934.53;5055033;28;45664;-78
2022/05/25 05:08:13;;;;;;;;;2.00;2.00;;;;;14.00;63.05;100921.09;5054307;28;46804;-83
2022/05/25 05:11:14;;;;;;;;;4.00;3.00;;;;;14.07;63.08;100938.09;5054187;28;45570;-84
2022/05/25 05:14:03;;;;;;;;;3.75;3.75;;;;;13.86;63.17;100909.06;5054794;28;45496;-85
2022/05/25 05:16:34;;;;;;;;;2.75;2.75;;;;;14.10;62.92;100953.66;5035901;28;47002;-83
2022/05/25 05:19:00;;;;;;;;;5.00;3.75;;;;;14.07;62.91;100936.31;5035140;28;47873;-85
2022/05/25 05:21:25;;;;;;;;;4.00;4.00;;;;;14.14;63.26;100952.47;5054208;28;45734;-82
2022/05/25 05:23:51;;;;;;;;;3.75;3.75;;;;;14.12;63.19;100949.13;5035548;28;45697;-82
2022/05/25 05:26:16;;;;;;;;;4.00;4.00;;;;;14.19;62.96;100963.47;5053458;28;45800;-85
2022/05/25 05:28:42;;;;;;;;;6.00;5.25;;;;;14.19;62.85;100956.41;5035579;28;47158;-84
2022/05/25 05:31:09;;;;;;;;;3.50;3.50;;;;;14.25;63.16;100965.63;5053619;28;45731;-80
2022/05/25 05:33:35;;;;;;;;;5.00;4.00;;;;;14.25;62.69;100944.53;5057423;28;45600;-84
2022/05/25 05:36:13;;;;;;;;;7.00;5.75;;;;;14.19;62.61;100935.34;5056997;28;46564;-82
2022/05/25 05:38:59;;;;;;;;;5.50;5.00;;;;;14.30;62.66;100948.44;5057279;28;45948;-82
2022/05/25 05:41:32;;;;;;;;;4.00;3.00;;;;;14.26;62.60;100941.75;5057229;28;45662;-81
2022/05/25 05:43:59;;;;;;;;;4.00;3.00;;;;;14.32;62.43;100929.88;5057563;28;45626;-83
2022/05/25 05:46:28;;;;;;;;;4.25;3.75;;;;;14.28;62.49;100928.47;5056898;28;45496;-82
2022/05/25 05:48:54;;;;;;;;;3.00;3.00;;;;;14.32;61.90;100927.25;5057014;28;45616;-84
2022/05/25 05:51:19;;;;;;;;;3.00;3.00;;;;;14.40;62.01;100932.78;5056931;28;45696;-80
2022/05/25 05:53:45;;;;;;;;;3.50;3.50;;;;;14.38;61.99;100929.41;5057378;28;45750;-81
2022/05/25 05:56:11;;;;;;;;;2.00;2.00;;;;;14.36;61.67;100919.94;5056716;28;46450;-80
2022/05/25 05:58:37;;;;;;;;;3.00;3.00;;;;;14.50;61.54;100940.75;5056759;28;45998;-83
2022/05/25 06:01:03;;;;;;;;;3.50;2.75;;;;;14.50;61.31;100936.31;5056822;28;45620;-84
2022/05/25 06:03:29;;;;;;;;;4.75;3.50;;;;;14.56;61.81;100948.16;5056583;28;45744;-84
2022/05/25 06:05:55;;;;;;;;;5.25;4.00;;;;;14.59;61.66;100958.44;5037945;28;47363;-81
2022/05/25 06:08:26;;;;;;;;;4.00;2.25;;;;;14.62;61.37;100956.41;5056854;28;45863;-81
2022/05/25 06:10:51;;;;;;;;;3.75;2.00;;;;;14.66;61.09;100962.25;5056679;28;45530;-83
2022/05/25 06:13:17;;;;;;;;;3.75;3.75;;;;;14.57;61.06;100950.69;5038393;28;45544;-82
2022/05/25 06:21:22;;;;;;;;;3.50;3.00;;;;;14.66;61.24;100957.84;5056180;28;45727;-80
2022/05/25 06:23:47;;;;;;;;;2.00;2.00;;;;;14.80;60.48;100984.84;5056554;28;45688;-81
2022/05/25 06:26:15;;;;;;;;;2.00;2.00;;;;;14.79;60.15;100983.19;5056283;28;45654;-83
2022/05/25 06:28:44;;;;;;;;;3.00;2.00;;;;;14.84;60.33;100987.13;5056324;28;46235;-83
2022/05/25 06:31:10;;;;;;;;;4.00;3.00;;;;;14.83;60.09;100997.81;5056270;28;45736;-80
2022/05/25 06:33:35;;;;;;;;;3.00;2.50;;;;;14.79;60.23;100981.38;5056856;28;45737;-78
2022/05/25 06:36:21;;;;;;;;;4.50;4.00;;;;;14.90;59.83;100998.97;5056769;28;45617;-79
2022/05/25 06:38:47;;;;;;;;;3.00;3.00;;;;;14.85;60.03;100996.69;5056997;28;46221;-82
2022/05/25 06:41:13;;;;;;;;;2.00;1.25;;;;;14.84;59.76;100992.41;5057574;28;45505;-83
2022/05/25 06:43:40;;;;;;;;;2.00;2.00;;;;;14.90;59.96;101005.06;5055630;28;45530;-83
2022/05/25 06:46:07;;;;;;;;;2.75;2.75;;;;;14.94;60.08;101009.16;5055536;28;45523;-78
2022/05/25 06:48:33;;;;;;;;;1.00;1.00;;;;;14.97;59.67;101016.78;5054446;28;46194;-75
2022/05/25 06:51:28;;;;;;;;;2.00;2.00;;;;;15.04;59.46;101025.06;5032822;28;45713;-75
2022/05/25 06:53:54;;;;;;;;;2.00;2.00;;;;;15.06;59.57;101020.50;5054472;28;45565;-75
2022/05/25 06:56:22;;;;;;;;;3.00;2.00;;;;;15.08;59.52;101013.25;5054927;28;45806;-77
2022/05/25 06:58:47;;;;;;;;;3.00;2.00;;;;;15.15;59.55;101027.63;5054885;28;46174;-77
2022/05/25 07:01:13;;;;;;;;;2.50;2.50;;;;;15.14;59.29;101015.41;5054786;28;45452;-77
2022/05/25 07:03:38;;;;;;;;;3.00;2.50;;;;;15.23;59.30;101030.47;5036530;28;45998;-78
2022/05/25 07:06:06;;;;;;;;;4.00;2.00;;;;;15.27;59.17;101031.06;5054766;28;45730;-77
2022/05/25 07:08:32;;;;;;;;;2.75;2.00;;;;;15.28;59.53;101017.69;5036821;28;46551;-78
2022/05/25 07:11:01;;;;;;;;;2.00;2.00;;;;;15.30;59.26;101018.44;5055003;28;45542;-77
2022/05/25 07:13:27;;;;;;;;;1.00;1.00;;;;;15.39;59.12;101016.78;5055000;28;45772;-77
2022/05/25 07:19:15;;;;;;;;;2.00;2.00;;;;;15.52;58.11;101031.53;5054631;28;45700;-78
2022/05/25 07:21:40;;;;;;;;;2.00;2.00;;;;;15.55;57.91;101033.03;5055005;28;45625;-76
2022/05/25 07:24:06;;;;;;;;;2.50;1.00;;;;;15.60;57.13;101040.59;5055165;28;45655;-77
2022/05/25 07:26:33;;;;;;;;;0.00;0.00;;;;;15.60;56.92;101044.06;5054521;28;46723;-77
2022/05/25 07:28:59;;;;;;;;;1.00;1.00;;;;;15.65;56.39;101057.75;5054275;28;46227;-77
2022/05/25 07:31:39;;;;;;;;;0.00;0.00;;;;;15.68;56.43;101064.56;5054179;28;45705;-76
2022/05/25 07:34:12;;;;;;;;;1.00;1.00;;;;;15.69;56.22;101063.59;5054800;28;45678;-77
2022/05/25 07:36:39;;;;;;;;;1.00;1.00;;;;;15.68;56.23;101056.63;5054484;28;47040;-78
2022/05/25 07:39:08;;;;;;;;;0.00;0.00;;;;;15.76;55.78;101070.84;5054366;28;45894;-79
2022/05/25 07:41:39;;;;;;;;;0.50;0.50;;;;;15.78;55.78;101062.78;5054005;28;45541;-78
2022/05/25 07:44:10;;;;;;;;;1.00;0.00;;;;;15.83;55.42;101064.06;5054242;28;45748;-77
2022/05/25 07:46:35;;;;;;;;;0.25;0.25;;;;;15.87;55.22;101064.66;5054566;28;46600;-77
2022/05/25 07:49:02;;;;;;;;;1.00;0.00;;;;;15.73;54.92;101034.13;5054244;28;47272;-79
2022/05/25 07:51:28;;;;;;;;;1.50;0.00;;;;;15.86;54.67;101055.06;5054553;28;45628;-80
2022/05/25 07:53:58;;;;;;;;;2.00;0.50;;;;;15.98;54.48;101061.09;5053761;28;45699;-79
2022/05/25 07:56:30;;;;;;;;;0.00;0.00;;;;;15.98;53.99;101061.09;5053826;28;45558;-78
2022/05/25 07:58:57;;;;;;;;;0.50;0.00;;;;;16.04;53.62;101073.75;5054328;28;46239;-77
2022/05/25 08:07:31;;;;;;;;;0.00;0.00;;;;;16.06;51.97;101075.31;5053803;28;45609;-78
2022/05/25 08:10:10;;;;;;;;;0.00;0.00;;;;;16.07;51.92;101073.50;5054062;28;45983;-78
2022/05/25 08:12:38;;;;;;;;;0.00;0.00;;;;;16.17;51.73;101098.19;5054052;28;45698;-80
2022/05/25 08:15:05;;;;;;;;;0.00;0.00;;;;;16.12;52.00;101079.22;5054260;28;45666;-80
2022/05/25 08:17:30;;;;;;;;;0.50;0.50;;;;;16.17;51.71;101085.78;5054418;28;45692;-78
2022/05/25 08:19:56;;;;;;;;;0.00;0.00;;;;;16.23;52.35;101087.91;5036294;28;47509;-82
2022/05/25 08:22:21;;;;;;;;;0.00;0.00;;;;;16.28;51.91;101085.69;5054272;28;45696;-81
2022/05/25 08:24:47;;;;;;;;;0.25;0.25;;;;;16.24;52.40;101081.66;5054381;28;45772;-81
2022/05/25 08:27:12;;;;;;;;;0.00;0.00;;;;;16.27;52.44;101077.91;5054588;28;45743;-81
2022/05/25 08:29:38;;;;;;;;;1.00;0.75;;;;;16.33;52.54;101082.66;5054217;28;46622;-81
2022/05/25 08:32:04;;;;;;;;;1.00;0.75;;;;;16.37;52.80;101068.19;5054143;28;45605;-83
2022/05/25 08:34:31;;;;;;;;;1.00;1.00;;;;;16.38;52.50;101062.75;5054180;28;45587;-80
2022/05/25 08:36:59;;;;;;;;;1.00;1.00;;;;;16.44;52.51;101076.41;5054108;28;45645;-80
2022/05/25 08:39:25;;;;;;;;;1.50;1.00;;;;;16.51;52.71;101082.84;5036347;28;48295;-78
2022/05/25 08:41:53;;;;;;;;;1.00;0.00;;;;;16.44;52.41;101064.03;5054164;28;45564;-82
2022/05/25 08:44:20;;;;;;;;;0.00;0.00;;;;;16.51;52.18;101069.63;5054167;28;45655;-81
2022/05/25 08:50:07;;;;;;;;;0.00;0.00;;;;;16.53;51.27;101076.44;5053944;28;45768;-80
2022/05/25 08:52:35;;;;;;;;;0.00;0.00;;;;;16.64;51.44;101080.81;5054167;28;45547;-79
2022/05/25 08:55:07;;;;;;;;;0.00;0.00;;;;;16.63;51.33;101085.25;5054462;28;45821;-82
2022/05/25 08:57:40;;;;;;;;;0.00;0.00;;;;;16.66;49.69;101081.50;5036296;28;48382;-83
2022/05/25 09:00:13;;;;;;;;;0.00;0.00;;;;;16.70;49.71;101089.03;5035398;28;46828;-80
2022/05/25 09:02:39;;;;;;;;;0.00;0.00;;;;;16.72;49.53;101084.47;5053600;28;45790;-78
2022/05/25 09:05:21;;;;;;;;;0.00;0.00;;;;;16.74;49.48;101079.84;5053781;28;45792;-79
2022/05/25 09:07:58;;;;;;;;;0.00;0.00;;;;;16.84;48.83;101095.75;5038426;28;47528;-82
2022/05/25 09:10:28;;;;;;;;;0.00;0.00;;;;;16.88;49.05;101098.97;5057796;28;46414;-80
2022/05/25 09:13:03;;;;;;;;;0.00;0.00;;;;;16.87;48.56;101092.81;5039234;28;45690;-76
2022/05/25 09:15:34;;;;;;;;;1.00;0.00;;;;;16.94;48.61;101095.78;5057204;28;45493;-78
2022/05/25 09:17:59;;;;;;;;;0.00;0.00;;;;;16.95;48.19;101090.31;5056857;28;45755;-77
2022/05/25 09:20:37;;;;;;;;;0.25;0.25;;;;;16.96;47.94;101092.00;5038402;28;48490;-76
2022/05/25 09:23:03;;;;;;;;;1.00;0.00;;;;;17.03;48.29;101090.47;5059797;28;45652;-78
2022/05/25 09:25:31;;;;;;;;;0.00;0.00;;;;;17.12;47.72;101086.97;5061752;28;45615;-78
2022/05/25 09:28:14;;;;;;;;;0.00;0.00;;;;;17.08;46.95;101068.88;5058244;28;46462;-79
2022/05/25 09:30:42;;;;;;;;;0.00;0.00;;;;;17.17;47.21;101068.03;5055990;28;45576;-79
2022/05/25 09:33:15;;;;;;;;;0.00;0.00;;;;;17.23;46.76;101077.22;5056596;28;45677;-76
2022/05/25 09:36:04;;;;;;;;;0.00;0.00;;;;;17.36;46.46;101088.38;5056697;28;45697;-78
2022/05/25 09:38:32;;;;;;;;;0.00;0.00;;;;;17.41;46.67;101091.44;5056490;28;45812;-77
2022/05/25 09:41:06;;;;;;;;;0.75;0.00;;;;;17.46;46.51;101090.03;5057629;28;45847;-77
2022/05/25 09:43:32;;;;;;;;;0.00;0.00;;;;;17.44;46.59;101083.19;5057116;28;45660;-77
2022/05/25 09:46:05;;;;;;;;;0.75;0.00;;;;;17.48;46.52;101090.75;5056183;28;45613;-79
2022/05/25 09:48:37;;;;;;;;;0.00;0.00;;;;;17.54;45.66;101089.34;5056374;28;47648;-77
2022/05/25 09:51:03;;;;;;;;;0.00;0.00;;;;;17.58;45.60;101088.06;5056622;28;46426;-79
2022/05/25 09:53:39;;;;;;;;;0.00;0.00;;;;;17.57;45.96;101084.59;5056605;28;45498;-79
2022/05/25 09:56:15;;;;;;;;;1.00;0.25;;;;;17.69;69.75;101103.00;5056226;28;45731;-79
2022/05/25 09:58:47;;;;;;;;;0.25;0.25;;;;;17.51;71.62;101110.81;5056046;28;45762;-80
2022/05/25 10:01:46;;;;;;;;;0.00;0.00;;;;;17.14;75.86;101098.28;5056065;28;46244;-77
2022/05/25 10:04:32;;;;;;;;;0.25;0.00;;;;;16.73;73.14;101096.69;5055891;28;45603;-78
2022/05/25 10:06:58;;;;;;;;;0.00;0.00;;;;;16.41;74.13;101106.59;5056216;28;45548;-79
2022/05/25 10:09:26;;;;;;;;;0.75;0.00;;;;;16.25;76.72;101098.34;5056027;28;46579;-79
2022/05/25 10:11:57;;;;;;;;;0.00;0.00;;;;;16.00;72.60;101090.84;5055762;28;46214;-79
2022/05/25 10:14:32;;;;;;;;;0.00;0.00;;;;;15.89;72.17;101097.91;5055804;28;45537;-79
2022/05/25 10:17:06;;;;;;;;;1.00;1.00;;;;;15.87;74.56;101096.38;5055103;28;45610;-78
2022/05/25 10:19:36;;;;;;;;;0.00;0.00;;;;;15.88;71.88;101120.00;5055345;28;45553;-77
2022/05/25 10:22:02;;;;;;;;;0.00;0.00;;;;;15.86;73.34;101113.19;5055426;28;46451;-77
2022/05/25 10:24:43;;;;;;;;;0.00;0.00;;;;;15.83;73.11;101106.34;5055268;28;45787;-78
2022/05/25 10:27:22;;;;;;;;;0.00;0.00;;;;;15.77;72.33;101085.72;5055489;28;45559;-77
2022/05/25 10:38:20;;;;;;;;;0.00;0.00;;;;;16.15;71.93;101094.81;5055561;28;45590;-77
2022/05/25 10:40:46;;;;;;;;;0.00;0.00;;;;;16.35;70.02;101121.22;5055274;28;45534;-79
2022/05/25 10:43:24;;;;;;;;;1.00;0.75;;;;;16.42;63.19;101102.16;5055712;28;45846;-78
2022/05/25 10:49:30;;;;;;;;;0.00;0.00;;;;;16.72;60.04;101096.84;5055329;28;45680;-81
2022/05/25 10:52:05;;;;;;;;;0.00;0.00;;;;;16.82;60.83;101088.91;5055729;28;45861;-78
2022/05/25 10:54:53;;;;;;;;;0.00;0.00;;;;;16.91;57.52;101110.09;5055247;28;45467;-76
2022/05/25 10:57:34;;;;;;;;;1.00;0.50;;;;;16.98;58.44;101099.81;5055653;28;45632;-79
2022/05/25 11:00:14;;;;;;;;;0.00;0.00;;;;;17.02;56.55;101098.53;5055557;28;45697;-77
2022/05/25 11:06:37;;;;;;;;;0.75;0.00;;;;;17.18;55.08;101093.53;5054601;28;46078;-79
2022/05/25 11:09:16;;;;;;;;;0.25;0.00;;;;;17.27;54.23;101099.81;5054649;28;45670;-78
2022/05/25 11:11:54;;;;;;;;;0.25;0.00;;;;;17.38;55.22;101115.56;5055216;28;45622;-79
2022/05/25 11:14:36;;;;;;;;;0.50;0.25;;;;;17.47;55.37;101102.31;5054462;28;45723;-78
2022/05/25 11:17:07;;;;;;;;;0.00;0.00;;;;;17.58;53.68;101106.63;5055058;28;46491;-81
2022/05/25 11:19:47;;;;;;;;;0.00;0.00;;;;;17.61;55.73;101095.75;5036269;28;46093;-77
2022/05/25 11:22:45;;;;;;;;;1.25;0.00;;;;;17.65;54.16;101078.63;5054976;28;45726;-78
2022/05/25 11:25:42;;;;;;;;;1.00;0.00;;;;;17.88;55.29;101110.91;5054490;28;45631;-78
2022/05/25 11:28:16;;;;;;;;;0.00;0.00;;;;;17.95;54.58;101112.00;5026494;28;45590;-78
2022/05/25 11:30:52;;;;;;;;;0.00;0.00;;;;;18.06;53.26;101109.19;5052287;28;45742;-78
2022/05/25 11:33:26;;;;;;;;;0.00;0.00;;;;;18.15;51.76;101097.69;5053497;28;45547;-79
2022/05/25 11:36:27;;;;;;;;;0.00;0.00;;;;;18.23;52.74;101107.59;5053303;28;45787;-77
2022/05/25 11:39:07;;;;;;;;;0.00;0.00;;;;;18.33;53.14;101100.41;4971658;28;46372;-75
2022/05/25 11:41:43;;;;;;;;;0.00;0.00;;;;;18.39;52.63;101107.78;4972282;28;45787;-79
2022/05/25 11:44:29;;;;;;;;;0.00;0.00;;;;;18.46;52.01;101100.91;4972356;28;45631;-82
2022/05/25 11:50:24;;;;;;;;;0.00;0.00;;;;;18.63;51.42;101092.16;4972869;28;45981;-80
2022/05/25 11:53:12;;;;;;;;;0.00;0.00;;;;;18.70;52.01;101108.34;4956540;28;45964;-81
2022/05/25 11:56:05;;;;;;;;;0.00;0.00;;;;;18.70;52.29;101103.88;4973072;28;45627;-81
2022/05/25 11:58:45;;;;;;;;;0.75;0.00;;;;;18.78;51.24;101093.34;4956278;28;47458;-81
2022/05/25 12:08:13;;;;;;;;;0.00;0.00;;;;;19.06;50.66;101094.09;4973019;28;45607;-78
2022/05/25 12:10:44;;;;;;;;;0.00;0.00;;;;;19.13;50.46;101094.34;4972448;28;45734;-81
2022/05/25 12:13:35;;;;;;;;;0.00;0.00;;;;;19.19;49.03;101086.59;4972910;28;45957;-81
2022/05/25 12:16:21;;;;;;;;;0.00;0.00;;;;;19.31;50.48;101126.22;5015956;28;45770;-81
2022/05/25 12:19:19;;;;;;;;;0.00;0.00;;;;;19.37;50.62;101107.00;5054509;28;45609;-83
2022/05/25 12:21:57;;;;;;;;;0.00;0.00;;;;;19.36;49.81;101095.53;5054247;28;45608;-81
2022/05/25 12:24:31;;;;;;;;;0.00;0.00;;;;;19.44;51.43;101122.16;5053819;28;46121;-80
2022/05/25 12:27:01;;;;;;;;;0.00;0.00;;;;;19.42;51.22;101102.91;5055104;28;45738;-83
2022/05/25 12:29:33;;;;;;;;;0.00;0.00;;;;;19.47;49.63;101113.09;5053216;28;45582;-80
2022/05/25 12:35:32;;;;;;;;;1.00;0.00;;;;;19.52;49.05;101119.63;5052739;28;45968;-81
2022/05/25 12:37:59;;;;;;;;;0.00;0.00;;;;;19.52;48.59;101103.69;5053598;28;45660;-79
2022/05/25 12:40:44;;;;;;;;;0.00;0.00;;;;;19.55;49.45;101123.78;5052941;28;45619;-77
2022/05/25 12:43:48;;;;;;;;;0.00;0.00;;;;;19.56;50.11;101113.00;5053329;28;45603;-80
2022/05/25 12:52:29;;;;;;;;;0.00;0.00;;;;;19.68;49.91;101117.09;5054348;28;45699;-80
2022/05/25 12:55:07;;;;;;;;;0.00;0.00;;;;;19.77;49.86;101119.78;5053798;28;45553;-81
2022/05/25 12:58:02;;;;;;;;;0.00;0.00;;;;;19.86;48.77;101119.72;5053863;28;45957;-82
2022/05/25 13:00:39;;;;;;;;;0.00;0.00;;;;;19.92;49.13;101105.75;4972280;28;45719;-82
2022/05/25 13:03:19;;;;;;;;;0.00;0.00;;;;;20.03;48.42;101110.81;4971973;28;45636;-81
2022/05/25 13:05:54;;;;;;;;;0.00;0.00;;;;;20.09;48.77;101104.03;4971813;28;45698;-81
2022/05/25 13:08:48;;;;;;;;;0.00;0.00;;;;;20.20;48.31;101108.25;4972061;28;46040;-81
2022/05/25 13:11:40;;;;;;;;;0.00;0.00;;;;;20.33;49.46;101141.47;4972363;28;45760;-80
2022/05/25 13:14:16;;;;;;;;;0.00;0.00;;;;;20.43;52.83;101115.53;4972009;28;45807;-81
2022/05/25 13:16:41;;;;;;;;;0.00;0.00;;;;;20.47;48.87;101113.38;4972094;28;45821;-81